Time;durP1;ratioP1;P1;durP2;ratioP2;P2;SDS_P1;SDS_P2;PMS_P1;PMS_P2;Temp;Humidity;BMP_temperature;BMP_pressure;BME280_temperature;BME280_humidity;BME280_pressure;Samples;Min_cycle;Max_cycle;Signal;HPM_P1;HPM_P2
2021/12/22 00:01:42;;;;;;;;;;;;;;;20.63;29.18;101932.98;100712;1362;74823;-83
2021/12/22 00:04:43;;;;;;;;;;;;;;;20.63;29.15;101942.07;100714;1363;76302;-82
2021/12/22 00:07:41;;;;;;;;;;;;;;;;;;;;;
2021/12/22 00:10:38;;;;;;;;;;;;;;;;;;;;;
2021/12/22 00:13:37;;;;;;;;;;;;;;;;;;;;;
2021/12/22 00:19:40;;;;;;;;;;;;;;;;;;;;;
2021/12/22 00:22:30;;;;;;;;;;;;;;;20.63;29.08;101944.40;98977;1388;61464;-80
2021/12/22 00:25:26;;;;;;;;;;;;;;;;;;;;;
2021/12/22 00:31:40;;;;;;;;;;;;;;;;;;;;;
2021/12/22 00:34:30;;;;;;;;;;;;;;;;;;;;;
2021/12/22 00:37:20;;;;;;;;;;;;;;;;;;;;;
2021/12/22 00:40:27;;;;;;;;;;;;;;;20.64;29.15;101957.80;98245;1400;73724;-81
2021/12/22 00:43:43;;;;;;;;;;;;;;;;;;;;;
2021/12/22 00:47:01;;;;;;;;;;;;;;;20.63;29.17;101967.48;97707;1408;61318;-82
2021/12/22 00:50:00;;;;;;;;;;;;;;;;;;;;;
2021/12/22 00:52:58;;;;;;;;;;;;;;;20.64;29.23;101975.86;97633;1403;74977;-82
2021/12/22 00:59:10;;;;;;;;;;;;;;;20.64;29.14;101976.40;98328;1396;61681;-81
2021/12/22 01:02:20;;;;;;;;;;;;;;;20.64;29.17;101979.61;98385;1397;71673;-81
2021/12/22 01:05:16;;;;;;;;;;;;;;;;;;;;;
2021/12/22 01:08:18;;;;;;;;;;;;;;;20.63;29.19;101984.63;98516;1393;61326;-82
2021/12/22 01:11:16;;;;;;;;;;;;;;;20.64;29.15;101986.95;98618;1389;61174;-82
2021/12/22 01:14:24;;;;;;;;;;;;;;;;;;;;;
2021/12/22 01:17:43;;;;;;;;;;;;;;;20.64;29.16;101994.43;98460;1397;74991;-82
2021/12/22 01:24:31;;;;;;;;;;;;;;;20.64;29.16;101991.02;96493;1393;2898977;-81
2021/12/22 01:27:24;;;;;;;;;;;;;;;;;;;;;
2021/12/22 01:31:18;;;;;;;;;;;;;;;20.64;29.16;101993.17;98671;1386;76828;-82
2021/12/22 01:33:44;;;;;;;;;;;;;;;20.64;29.08;102001.39;98818;1393;61423;-81
2021/12/22 01:37:01;;;;;;;;;;;;;;;;;;;;;
2021/12/22 01:43:14;;;;;;;;;;;;;;;20.64;29.16;102000.87;99301;1379;76780;-82
2021/12/22 01:49:50;;;;;;;;;;;;;;;20.64;29.16;101999.48;99662;1377;61361;-79
2021/12/22 01:52:35;;;;;;;;;;;;;;;20.64;29.13;101998.17;100117;1372;72615;-80
2021/12/22 01:55:25;;;;;;;;;;;;;;;20.64;29.10;102004.62;100534;1362;74924;-80
2021/12/22 01:58:08;;;;;;;;;;;;;;;20.64;29.11;102004.27;100636;1364;61294;-81
2021/12/22 02:01:18;;;;;;;;;;;;;;;;;;;;;
2021/12/22 02:04:50;;;;;;;;;;;;;;;20.65;29.14;102010.50;100844;1362;71578;-82
2021/12/22 02:08:00;;;;;;;;;;;;;;;20.64;29.18;102006.40;100570;1368;73559;-82
2021/12/22 02:11:04;;;;;;;;;;;;;;;20.64;29.12;102004.80;100727;1368;60308;-82
2021/12/22 02:14:19;;;;;;;;;;;;;;;20.64;29.11;102001.59;100281;1368;61690;-81
2021/12/22 02:17:13;;;;;;;;;;;;;;;20.64;29.15;101999.08;100254;1372;73941;-82
2021/12/22 02:19:59;;;;;;;;;;;;;;;20.64;29.08;102001.58;99801;1378;74718;-82
2021/12/22 02:26:49;;;;;;;;;;;;;;;20.64;29.06;101996.61;98790;1389;61376;-82
2021/12/22 02:29:35;;;;;;;;;;;;;;;20.63;29.08;101988.05;98587;1390;71834;-81
2021/12/22 02:32:38;;;;;;;;;;;;;;;20.63;29.10;101980.70;98622;1390;74998;-82
2021/12/22 02:35:37;;;;;;;;;;;;;;;;;;;;;
2021/12/22 02:38:37;;;;;;;;;;;;;;;;;;;;;
2021/12/22 02:41:27;;;;;;;;;;;;;;;20.63;29.09;101976.05;98076;1399;73146;-82
2021/12/22 02:44:41;;;;;;;;;;;;;;;20.63;29.11;101975.90;97307;1408;74956;-82
2021/12/22 02:47:46;;;;;;;;;;;;;;;20.63;29.05;101969.29;96850;1410;61433;-81
2021/12/22 02:50:44;;;;;;;;;;;;;;;20.63;29.05;101970.55;96573;1419;60745;-82
2021/12/22 02:54:41;;;;;;;;;;;;;;;20.63;28.93;101968.38;96534;1416;73507;-82
2021/12/22 02:57:17;;;;;;;;;;;;;;;;;;;;;
2021/12/22 03:03:50;;;;;;;;;;;;;;;20.63;28.91;101958.19;96738;1411;61388;-82
2021/12/22 03:06:50;;;;;;;;;;;;;;;;;;;;;
2021/12/22 03:10:06;;;;;;;;;;;;;;;20.63;28.98;101959.96;96949;1414;75397;-81
2021/12/22 03:13:02;;;;;;;;;;;;;;;;;;;;;
2021/12/22 03:16:04;;;;;;;;;;;;;;;20.63;29.02;101969.10;97655;1398;61247;-81
2021/12/22 03:19:09;;;;;;;;;;;;;;;20.64;28.94;101972.84;97351;1408;74433;-82
2021/12/22 03:25:41;;;;;;;;;;;;;;;20.63;28.91;101966.62;97096;1412;61299;-82
2021/12/22 03:28:51;;;;;;;;;;;;;;;20.62;29.05;101965.91;97352;1409;60722;-82
2021/12/22 03:32:07;;;;;;;;;;;;;;;;;;;;;
2021/12/22 03:35:16;;;;;;;;;;;;;;;;;;;;;
2021/12/22 03:38:04;;;;;;;;;;;;;;;20.63;28.95;101975.92;97450;1401;61293;-81
2021/12/22 03:40:53;;;;;;;;;;;;;;;20.62;28.92;101977.75;97922;1395;62265;-81
2021/12/22 03:44:01;;;;;;;;;;;;;;;20.62;28.99;101975.92;98585;1392;71681;-81
2021/12/22 03:47:14;;;;;;;;;;;;;;;20.62;28.96;101974.52;98509;1398;74848;-81
2021/12/22 03:50:08;;;;;;;;;;;;;;;20.61;28.95;101972.76;98502;1395;61454;-82
2021/12/22 03:53:47;;;;;;;;;;;;;;;20.61;28.98;101981.36;98584;1395;61440;-81
2021/12/22 03:56:39;;;;;;;;;;;;;;;20.60;28.90;101988.16;98586;1392;72892;-82
2021/12/22 03:59:47;;;;;;;;;;;;;;;;;;;;;
2021/12/22 04:05:54;;;;;;;;;;;;;;;;;;;;;
2021/12/22 04:08:52;;;;;;;;;;;;;;;;;;;;;
2021/12/22 04:11:32;;;;;;;;;;;;;;;20.59;28.96;101975.01;98127;1401;76349;-83
2021/12/22 04:14:35;;;;;;;;;;;;;;;20.58;28.91;101977.90;98469;1399;61383;-81
2021/12/22 04:17:56;;;;;;;;;;;;;;;20.58;28.92;101988.80;98095;1402;62063;-81
2021/12/22 04:24:10;;;;;;;;;;;;;;;;;;;;;
2021/12/22 04:26:55;;;;;;;;;;;;;;;20.59;28.88;101987.19;97820;1404;61256;-81
2021/12/22 04:30:10;;;;;;;;;;;;;;;;;;;;;
2021/12/22 04:33:19;;;;;;;;;;;;;;;20.59;28.80;101986.05;97602;1402;71908;-81
2021/12/22 04:36:08;;;;;;;;;;;;;;;20.59;28.75;101990.73;97779;1401;74687;-82
2021/12/22 04:39:32;;;;;;;;;;;;;;;;;;;;;
2021/12/22 04:42:30;;;;;;;;;;;;;;;20.60;28.59;102003.39;98557;1395;61541;-81
2021/12/22 04:45:25;;;;;;;;;;;;;;;20.60;28.46;102003.02;98733;1393;74028;-81
2021/12/22 04:48:48;;;;;;;;;;;;;;;20.59;28.44;101996.98;98629;1396;75211;-81
2021/12/22 04:51:47;;;;;;;;;;;;;;;;;;;;;
2021/12/22 04:54:47;;;;;;;;;;;;;;;20.58;28.30;101999.18;98712;1390;61520;-81
2021/12/22 04:57:33;;;;;;;;;;;;;;;20.58;28.26;102000.98;99138;1390;73438;-81
2021/12/22 05:00:27;;;;;;;;;;;;;;;20.58;28.15;102003.30;98987;1387;75041;-81
2021/12/22 05:04:01;;;;;;;;;;;;;;;20.58;28.13;102007.06;98963;1389;61579;-81
2021/12/22 05:06:35;;;;;;;;;;;;;;;20.58;28.01;102006.91;98564;1396;60363;-81
2021/12/22 05:09:33;;;;;;;;;;;;;;;20.57;27.98;102006.55;98507;1396;72797;-81
2021/12/22 05:12:19;;;;;;;;;;;;;;;20.56;27.98;102002.67;98538;1397;74867;-82
2021/12/22 05:15:28;;;;;;;;;;;;;;;20.55;27.98;102002.19;98224;1402;61250;-80
2021/12/22 05:19:11;;;;;;;;;;;;;;;20.54;28.00;102005.83;98320;1398;61615;-80
2021/12/22 05:21:40;;;;;;;;;;;;;;;20.54;28.04;102012.11;98188;1395;71946;-80
2021/12/22 05:24:27;;;;;;;;;;;;;;;20.55;27.93;102013.69;98444;1399;75109;-81
2021/12/22 05:27:36;;;;;;;;;;;;;;;20.54;27.84;102012.30;98744;1389;62936;-81
2021/12/22 05:30:18;;;;;;;;;;;;;;;20.53;27.76;102013.41;98874;1392;61296;-81
2021/12/22 05:33:27;;;;;;;;;;;;;;;20.52;27.68;102011.33;98845;1389;71791;-81
2021/12/22 05:36:17;;;;;;;;;;;;;;;20.52;27.66;102013.11;98845;1391;75414;-80
2021/12/22 05:39:12;;;;;;;;;;;;;;;20.50;27.55;102016.75;98460;1394;61920;-80
2021/12/22 05:41:54;;;;;;;;;;;;;;;20.47;27.52;102018.55;98639;1391;60463;-79
2021/12/22 05:44:45;;;;;;;;;;;;;;;20.39;27.53;102019.07;99160;1388;73060;-80
2021/12/22 05:47:14;;;;;;;;;;;;;;;20.30;27.45;102021.67;99292;1380;74972;-82
2021/12/22 05:49:54;;;;;;;;;;;;;;;20.22;27.42;102022.08;99328;1373;60111;-81
2021/12/22 05:52:28;;;;;;;;;;;;;;;20.13;27.40;102028.02;99378;1374;60510;-80
2021/12/22 05:54:54;;;;;;;;;;;;;;;20.05;27.39;102031.98;99932;1371;73705;-81
2021/12/22 05:57:31;;;;;;;;;;;;;;;19.98;27.49;102035.91;99881;1373;61444;-80
2021/12/22 05:59:59;;;;;;;;;;;;;;;19.90;27.62;102038.55;99765;1374;61282;-79
2021/12/22 06:02:25;;;;;;;;;;;;;;;19.85;27.57;102038.48;100100;1364;61488;-79
2021/12/22 06:05:11;;;;;;;;;;;;;;;19.80;27.47;102039.73;100232;1365;73586;-81
2021/12/22 06:07:55;;;;;;;;;;;;;;;;;;;;;
2021/12/22 06:10:23;;;;;;;;;;;;;;;19.75;27.40;102047.84;100367;1365;61303;-79
2021/12/22 06:12:54;;;;;;;;;;;;;;;19.75;27.32;102048.71;100621;1364;61337;-80
2021/12/22 06:15:29;;;;;;;;;;;;;;;19.77;27.21;102045.77;100314;1365;74126;-80
2021/12/22 06:17:57;;;;;;;;;;;;;;;19.80;27.13;102045.10;101236;1356;75776;-79
2021/12/22 06:20:32;;;;;;;;;;;;;;;19.82;27.10;102046.64;100924;1357;61348;-79
2021/12/22 06:23:06;;;;;;;;;;;;;;;19.86;27.12;102042.54;101094;1357;61426;-79
2021/12/22 06:25:38;;;;;;;;;;;;;;;19.89;26.98;102039.35;101163;1353;74053;-79
2021/12/22 06:28:12;;;;;;;;;;;;;;;19.94;26.99;102043.96;101212;1359;74124;-79
2021/12/22 06:30:49;;;;;;;;;;;;;;;19.98;27.10;102040.37;101249;1357;61194;-82
2021/12/22 06:33:17;;;;;;;;;;;;;;;20.02;26.96;102042.85;101229;1361;61329;-81
2021/12/22 06:36:34;;;;;;;;;;;;;;;20.07;26.85;102043.17;101042;1356;73236;-80
2021/12/22 06:39:24;;;;;;;;;;;;;;;20.11;27.08;102041.52;100887;1356;74742;-81
2021/12/22 06:41:49;;;;;;;;;;;;;;;20.14;26.88;102047.45;100856;1358;61268;-80
2021/12/22 06:44:25;;;;;;;;;;;;;;;20.18;27.03;102052.10;100871;1356;62008;-81
2021/12/22 06:46:59;;;;;;;;;;;;;;;20.22;27.07;102056.59;100709;1356;73890;-79
2021/12/22 06:49:35;;;;;;;;;;;;;;;20.24;27.14;102060.05;100967;1354;75966;-80
2021/12/22 06:52:01;;;;;;;;;;;;;;;20.27;27.29;102060.08;100880;1353;62606;-81
2021/12/22 06:54:51;;;;;;;;;;;;;;;;;;;;;
2021/12/22 06:57:37;;;;;;;;;;;;;;;20.16;27.47;102064.02;100975;1354;72833;-82
2021/12/22 07:03:30;;;;;;;;;;;;;;;20.03;27.56;102062.80;101435;1360;60104;-81
2021/12/22 07:06:01;;;;;;;;;;;;;;;20.04;27.75;102066.73;100466;1362;61347;-79
2021/12/22 07:08:38;;;;;;;;;;;;;;;20.06;27.43;102064.66;100486;1360;71783;-79
2021/12/22 07:11:13;;;;;;;;;;;;;;;20.09;27.60;102067.02;99975;1362;75080;-81
2021/12/22 07:13:49;;;;;;;;;;;;;;;20.11;27.61;102067.62;99971;1362;61553;-81
2021/12/22 07:16:15;;;;;;;;;;;;;;;20.14;27.69;102069.27;100015;1363;62265;-81
2021/12/22 07:18:41;;;;;;;;;;;;;;;20.17;27.80;102067.89;100015;1365;61263;-81
2021/12/22 07:21:07;;;;;;;;;;;;;;;20.20;27.77;102067.74;99953;1362;61353;-80
2021/12/22 07:23:33;;;;;;;;;;;;;;;20.23;27.87;102072.75;99844;1365;61316;-81
2021/12/22 07:25:59;;;;;;;;;;;;;;;20.25;27.87;102070.55;99928;1362;61282;-79
2021/12/22 07:28:30;;;;;;;;;;;;;;;20.26;27.84;102071.73;99927;1362;61634;-80
2021/12/22 07:30:56;;;;;;;;;;;;;;;20.27;27.95;102067.77;99966;1362;74696;-80
2021/12/22 07:33:21;;;;;;;;;;;;;;;20.29;28.12;102066.97;100013;1362;61526;-81
2021/12/22 07:36:00;;;;;;;;;;;;;;;20.33;28.21;102068.59;99932;1363;61257;-79
2021/12/22 07:38:29;;;;;;;;;;;;;;;20.34;28.34;102070.30;100078;1362;72963;-81
2021/12/22 07:41:16;;;;;;;;;;;;;;;20.36;28.34;102069.29;100290;1361;74737;-81
2021/12/22 07:44:26;;;;;;;;;;;;;;;20.39;28.35;102067.04;100190;1360;61346;-80
2021/12/22 07:46:52;;;;;;;;;;;;;;;20.41;28.33;102068.52;100275;1361;61526;-81
2021/12/22 07:49:29;;;;;;;;;;;;;;;20.42;28.33;102068.63;100161;1361;61439;-81
2021/12/22 07:52:10;;;;;;;;;;;;;;;;;;;;;
2021/12/22 07:55:22;;;;;;;;;;;;;;;;;;;;;
2021/12/22 07:57:48;;;;;;;;;;;;;;;20.35;28.35;102075.42;99415;1369;61236;-81
2021/12/22 08:00:14;;;;;;;;;;;;;;;20.23;28.37;102076.16;99510;1368;59617;-81
2021/12/22 08:02:40;;;;;;;;;;;;;;;20.14;28.37;102074.11;99543;1371;60145;-80
2021/12/22 08:05:24;;;;;;;;;;;;;;;20.07;28.44;102071.39;99553;1372;61481;-81
2021/12/22 08:07:58;;;;;;;;;;;;;;;20.04;28.44;102070.83;99760;1373;61240;-81
2021/12/22 08:10:27;;;;;;;;;;;;;;;20.04;28.45;102066.00;99936;1369;73525;-80
2021/12/22 08:12:52;;;;;;;;;;;;;;;20.07;28.41;102066.79;99356;1369;74967;-80
2021/12/22 08:15:29;;;;;;;;;;;;;;;20.09;28.47;102067.73;99288;1371;61672;-80
2021/12/22 08:17:58;;;;;;;;;;;;;;;20.12;28.46;102071.89;99412;1374;61440;-79
2021/12/22 08:20:32;;;;;;;;;;;;;;;20.15;28.52;102080.30;99462;1372;74284;-80
2021/12/22 08:23:10;;;;;;;;;;;;;;;20.17;28.66;102083.25;100255;1359;74840;-82
2021/12/22 08:25:35;;;;;;;;;;;;;;;20.20;28.44;102084.03;101240;1359;60041;-79
2021/12/22 08:28:06;;;;;;;;;;;;;;;20.22;28.49;102085.73;100410;1360;61404;-79
2021/12/22 08:30:51;;;;;;;;;;;;;;;;;;;;;
2021/12/22 08:33:30;;;;;;;;;;;;;;;20.26;28.32;102089.81;100654;1354;74585;-80
2021/12/22 08:39:07;;;;;;;;;;;;;;;20.30;28.22;102091.41;100915;1353;61221;-82
2021/12/22 08:41:43;;;;;;;;;;;;;;;;;;;;;
2021/12/22 08:44:14;;;;;;;;;;;;;;;20.34;28.40;102098.55;100896;1353;74944;-81
2021/12/22 08:46:42;;;;;;;;;;;;;;;20.35;28.46;102095.80;100916;1354;61468;-81
2021/12/22 08:49:09;;;;;;;;;;;;;;;20.36;28.39;102090.39;100869;1354;61247;-80
2021/12/22 08:51:42;;;;;;;;;;;;;;;20.36;28.34;102090.58;100887;1353;74740;-81
2021/12/22 08:54:33;;;;;;;;;;;;;;;20.31;28.24;102091.18;100976;1353;76034;-81
2021/12/22 08:56:59;;;;;;;;;;;;;;;20.22;28.12;102089.98;100861;1353;61525;-80
2021/12/22 08:59:28;;;;;;;;;;;;;;;20.14;28.12;102089.83;100839;1353;61347;-80
2021/12/22 09:02:05;;;;;;;;;;;;;;;20.09;28.07;102090.59;100886;1353;74252;-80
2021/12/22 09:04:39;;;;;;;;;;;;;;;20.00;27.89;102093.32;101039;1350;74861;-81
2021/12/22 09:07:11;;;;;;;;;;;;;;;19.94;28.07;102089.69;100990;1352;61242;-82
2021/12/22 09:09:44;;;;;;;;;;;;;;;19.87;28.26;102090.19;100797;1355;61316;-81
2021/12/22 09:12:10;;;;;;;;;;;;;;;19.82;28.19;102081.45;100984;1354;73360;-80
2021/12/22 09:14:38;;;;;;;;;;;;;;;19.81;28.06;102080.29;100892;1354;75193;-81
2021/12/22 09:17:09;;;;;;;;;;;;;;;19.79;28.10;102069.09;101035;1354;60600;-80
2021/12/22 09:19:48;;;;;;;;;;;;;;;19.80;28.02;102069.76;101360;1348;61334;-80
2021/12/22 09:22:15;;;;;;;;;;;;;;;19.84;28.06;102069.09;100911;1347;556185;-79
2021/12/22 09:24:46;;;;;;;;;;;;;;;19.86;28.03;102062.36;101376;1348;61451;-82
2021/12/22 09:27:11;;;;;;;;;;;;;;;19.90;27.85;102060.94;101384;1348;61360;-80
2021/12/22 09:29:45;;;;;;;;;;;;;;;19.94;27.85;102058.98;101416;1346;61638;-80
2021/12/22 09:32:21;;;;;;;;;;;;;;;19.98;27.75;102064.48;102003;1348;74332;-80
2021/12/22 09:34:49;;;;;;;;;;;;;;;20.04;27.76;102061.19;101266;1348;75662;-80
2021/12/22 09:37:21;;;;;;;;;;;;;;;20.09;27.74;102056.27;101421;1348;62023;-81
2021/12/22 09:39:47;;;;;;;;;;;;;;;20.14;27.54;102052.29;101910;1345;61547;-79
2021/12/22 09:42:19;;;;;;;;;;;;;;;20.17;27.62;102052.69;101535;1349;61328;-80
2021/12/22 09:44:47;;;;;;;;;;;;;;;20.20;27.49;102050.59;101508;1347;74762;-80
2021/12/22 09:47:28;;;;;;;;;;;;;;;20.22;27.50;102045.49;101551;1348;60201;-83
2021/12/22 09:50:11;;;;;;;;;;;;;;;20.24;27.43;102049.47;102089;1348;60641;-84
2021/12/22 09:55:12;;;;;;;;;;;;;;;20.19;26.98;102039.17;101782;1337;73601;-83
2021/12/22 09:57:46;;;;;;;;;;;;;;;20.12;26.80;102035.94;101281;1353;59686;-82
2021/12/22 10:00:12;;;;;;;;;;;;;;;20.04;26.88;102037.39;101262;1350;61623;-82
2021/12/22 10:02:38;;;;;;;;;;;;;;;19.95;26.80;102034.42;101668;1346;61248;-83
2021/12/22 10:05:05;;;;;;;;;;;;;;;19.86;26.79;102035.52;101649;1351;60039;-82
2021/12/22 10:07:37;;;;;;;;;;;;;;;19.80;26.66;102032.08;101722;1354;61237;-82
2021/12/22 10:10:07;;;;;;;;;;;;;;;19.77;26.67;102025.77;101495;1350;59418;-80
2021/12/22 10:12:33;;;;;;;;;;;;;;;19.77;26.75;102021.45;101606;1353;73951;-81
2021/12/22 10:14:59;;;;;;;;;;;;;;;19.80;26.66;102016.34;101570;1351;61325;-80
2021/12/22 10:17:53;;;;;;;;;;;;;;;19.84;26.68;102012.44;101302;1353;61308;-81
2021/12/22 10:20:40;;;;;;;;;;;;;;;19.88;26.52;102012.42;102452;1353;60392;-83
2021/12/22 10:23:23;;;;;;;;;;;;;;;19.95;26.60;102007.83;101998;1359;73066;-82
2021/12/22 10:25:50;;;;;;;;;;;;;;;19.99;26.41;102004.23;101977;1359;74814;-83
2021/12/22 10:28:18;;;;;;;;;;;;;;;20.02;26.46;102006.58;101905;1359;60248;-83
2021/12/22 10:30:43;;;;;;;;;;;;;;;20.05;26.55;102000.71;102084;1356;60225;-83
2021/12/22 10:33:15;;;;;;;;;;;;;;;20.08;26.51;102002.71;101645;1359;60445;-83
2021/12/22 10:35:45;;;;;;;;;;;;;;;20.12;26.51;102000.03;101150;1359;75142;-82
2021/12/22 10:38:15;;;;;;;;;;;;;;;20.15;26.52;101997.05;100907;1358;61606;-83
2021/12/22 10:40:41;;;;;;;;;;;;;;;20.17;26.46;101997.66;101127;1356;59709;-83
2021/12/22 10:43:09;;;;;;;;;;;;;;;20.14;26.42;101998.66;101118;1363;60247;-82
2021/12/22 10:45:35;;;;;;;;;;;;;;;20.09;26.52;101997.66;101767;1361;74841;-82
2021/12/22 10:50:47;;;;;;;;;;;;;;;19.96;26.57;101992.05;101884;1363;60499;-82
2021/12/22 10:53:13;;;;;;;;;;;;;;;19.92;26.53;101990.77;101880;1359;59420;-81
2021/12/22 10:55:40;;;;;;;;;;;;;;;19.92;26.53;101988.29;101791;1359;59270;-82
2021/12/22 10:58:17;;;;;;;;;;;;;;;19.94;26.37;101990.54;101703;1359;59937;-83
2021/12/22 11:00:42;;;;;;;;;;;;;;;19.95;26.19;101990.66;101980;1357;60474;-83
2021/12/22 11:03:09;;;;;;;;;;;;;;;19.94;26.22;101988.91;102410;1354;59587;-83
2021/12/22 11:05:45;;;;;;;;;;;;;;;19.95;26.37;101994.23;102429;1354;59318;-84
2021/12/22 11:08:17;;;;;;;;;;;;;;;19.95;26.23;101989.58;102423;1355;60113;-83
2021/12/22 11:10:42;;;;;;;;;;;;;;;19.95;26.25;101985.69;102402;1354;60425;-82
2021/12/22 11:13:08;;;;;;;;;;;;;;;19.95;26.39;101986.92;102096;1354;60446;-82
2021/12/22 11:15:41;;;;;;;;;;;;;;;19.93;26.32;101987.16;101413;1355;75920;-81
2021/12/22 11:18:13;;;;;;;;;;;;;;;19.92;26.32;101984.38;101133;1356;61259;-82
2021/12/22 11:20:46;;;;;;;;;;;;;;;19.90;26.32;101982.49;101271;1360;61071;-81
2021/12/22 11:23:27;;;;;;;;;;;;;;;19.88;26.28;101977.95;101258;1353;73857;-82
2021/12/22 11:26:04;;;;;;;;;;;;;;;;;;;;;
2021/12/22 11:28:33;;;;;;;;;;;;;;;19.89;26.34;101976.98;101158;1353;61118;-82
2021/12/22 11:31:05;;;;;;;;;;;;;;;19.91;26.34;101970.83;101302;1356;61424;-80
2021/12/22 11:33:42;;;;;;;;;;;;;;;19.93;26.22;101974.14;101321;1356;72484;-82
2021/12/22 11:36:10;;;;;;;;;;;;;;;19.95;26.04;101972.25;101303;1358;73807;-81
2021/12/22 11:38:56;;;;;;;;;;;;;;;19.98;26.14;101971.40;101298;1354;61861;-82
2021/12/22 11:41:53;;;;;;;;;;;;;;;20.00;26.16;101967.52;101028;1356;61288;-83
2021/12/22 11:44:22;;;;;;;;;;;;;;;20.03;26.05;101968.13;101407;1356;73852;-82
2021/12/22 11:46:48;;;;;;;;;;;;;;;20.02;26.03;101968.53;101540;1353;75131;-79
2021/12/22 11:49:14;;;;;;;;;;;;;;;20.03;26.30;101966.15;101786;1355;61339;-82
2021/12/22 11:51:41;;;;;;;;;;;;;;;20.04;26.01;101965.89;101391;1351;61354;-83
2021/12/22 11:54:09;;;;;;;;;;;;;;;20.05;26.26;101969.27;101559;1354;73989;-82
2021/12/22 11:56:40;;;;;;;;;;;;;;;20.06;26.21;101969.77;101859;1353;74723;-82
2021/12/22 11:59:13;;;;;;;;;;;;;;;20.06;26.06;101959.73;101610;1353;61311;-82
2021/12/22 12:02:05;;;;;;;;;;;;;;;20.06;26.08;101966.15;101537;1353;61386;-82
2021/12/22 12:04:33;;;;;;;;;;;;;;;20.07;26.14;101965.58;102141;1355;73132;-82
2021/12/22 12:07:00;;;;;;;;;;;;;;;20.07;26.02;101963.98;102404;1358;75062;-82
2021/12/22 12:09:34;;;;;;;;;;;;;;;20.09;26.11;101963.55;101538;1354;61455;-82
2021/12/22 12:12:04;;;;;;;;;;;;;;;20.11;26.02;101964.70;101570;1357;61289;-80
2021/12/22 12:24:19;;;;;;;;;;;;;;;20.17;26.09;101949.02;101369;1357;61669;-83
2021/12/22 12:27:04;;;;;;;;;;;;;;;20.17;26.01;101951.69;101349;1353;72719;-83
2021/12/22 12:30:07;;;;;;;;;;;;;;;20.18;26.14;101947.54;101483;1356;74802;-82
2021/12/22 12:32:49;;;;;;;;;;;;;;;20.19;26.14;101943.21;101238;1357;60174;-82
2021/12/22 12:35:54;;;;;;;;;;;;;;;;;;;;;
2021/12/22 12:38:34;;;;;;;;;;;;;;;20.22;26.52;101945.74;101261;1363;73809;-81
2021/12/22 12:41:29;;;;;;;;;;;;;;;20.23;26.60;101943.36;101173;1363;74771;-81
2021/12/22 12:44:11;;;;;;;;;;;;;;;;;;;;;
2021/12/22 12:47:25;;;;;;;;;;;;;;;;;;;;;
2021/12/22 12:50:03;;;;;;;;;;;;;;;;;;;;;
2021/12/22 12:53:09;;;;;;;;;;;;;;;20.30;26.75;101944.09;100848;1365;74888;-82
2021/12/22 12:56:25;;;;;;;;;;;;;;;20.31;26.85;101945.30;100541;1369;61210;-82
2021/12/22 12:59:27;;;;;;;;;;;;;;;;;;;;;
2021/12/22 13:02:44;;;;;;;;;;;;;;;20.33;26.95;101945.35;99739;1378;72803;-81
2021/12/22 13:05:14;;;;;;;;;;;;;;;20.33;26.98;101950.00;99625;1374;75804;-81
2021/12/22 13:08:07;;;;;;;;;;;;;;;20.34;27.10;101951.06;100263;1372;61970;-81
2021/12/22 13:10:36;;;;;;;;;;;;;;;20.34;27.05;101946.60;100095;1369;60464;-81
2021/12/22 13:13:14;;;;;;;;;;;;;;;20.33;27.02;101945.58;100066;1369;72797;-81
2021/12/22 13:15:46;;;;;;;;;;;;;;;20.33;27.04;101941.08;100015;1375;76461;-81
2021/12/22 13:18:20;;;;;;;;;;;;;;;20.34;27.11;101945.70;100005;1372;61521;-81
2021/12/22 13:21:07;;;;;;;;;;;;;;;;;;;;;
2021/12/22 13:23:40;;;;;;;;;;;;;;;20.35;27.16;101943.34;99847;1371;74088;-80
2021/12/22 13:26:31;;;;;;;;;;;;;;;;;;;;;
2021/12/22 13:29:27;;;;;;;;;;;;;;;20.36;27.20;101951.84;100087;1368;61266;-80
2021/12/22 13:32:19;;;;;;;;;;;;;;;20.36;27.28;101953.42;99730;1374;61540;-80
2021/12/22 13:35:01;;;;;;;;;;;;;;;;;;;;;
2021/12/22 13:37:31;;;;;;;;;;;;;;;20.38;27.41;101954.09;99681;1378;74887;-80
2021/12/22 13:40:16;;;;;;;;;;;;;;;20.39;27.45;101953.15;99824;1375;61273;-80
2021/12/22 13:43:01;;;;;;;;;;;;;;;20.39;27.62;101954.39;99967;1371;61701;-80
2021/12/22 13:46:02;;;;;;;;;;;;;;;20.39;27.52;101954.89;99818;1375;73922;-80
2021/12/22 13:48:53;;;;;;;;;;;;;;;20.40;27.57;101954.14;99955;1373;76245;-80
2021/12/22 13:52:09;;;;;;;;;;;;;;;;;;;;;
2021/12/22 13:54:48;;;;;;;;;;;;;;;20.41;27.70;101958.20;99938;1371;61581;-80
2021/12/22 13:57:27;;;;;;;;;;;;;;;20.41;27.73;101956.05;99712;1372;71857;-80
2021/12/22 14:00:10;;;;;;;;;;;;;;;20.42;27.76;101959.58;100418;1371;76112;-80
2021/12/22 14:02:58;;;;;;;;;;;;;;;20.43;27.82;101960.80;99870;1377;61563;-81
2021/12/22 14:06:03;;;;;;;;;;;;;;;;;;;;;
2021/12/22 14:12:24;;;;;;;;;;;;;;;;;;;;;
2021/12/22 14:15:30;;;;;;;;;;;;;;;20.45;28.12;101966.05;99733;1374;60101;-81
2021/12/22 14:21:49;;;;;;;;;;;;;;;20.45;28.14;101968.73;99082;1387;72859;-82
2021/12/22 14:24:34;;;;;;;;;;;;;;;20.46;28.24;101970.50;99107;1390;75910;-83
2021/12/22 14:27:31;;;;;;;;;;;;;;;;;;;;;
2021/12/22 14:31:02;;;;;;;;;;;;;;;20.46;28.36;101967.08;98737;1390;61444;-82
2021/12/22 14:34:01;;;;;;;;;;;;;;;;;;;;;
2021/12/22 14:36:47;;;;;;;;;;;;;;;20.46;28.38;101964.77;98514;1397;74775;-82
2021/12/22 14:39:47;;;;;;;;;;;;;;;;;;;;;
2021/12/22 14:46:05;;;;;;;;;;;;;;;20.47;28.61;101963.63;98501;1396;74057;-82
2021/12/22 14:48:59;;;;;;;;;;;;;;;20.47;28.68;101967.20;98665;1396;75964;-82
2021/12/22 14:51:55;;;;;;;;;;;;;;;;;;;;;
2021/12/22 14:55:01;;;;;;;;;;;;;;;20.47;28.76;101970.99;97640;1402;61644;-83
2021/12/22 14:58:16;;;;;;;;;;;;;;;20.47;28.74;101973.65;97314;1409;71679;-83
2021/12/22 15:01:35;;;;;;;;;;;;;;;;;;;;;
2021/12/22 15:04:31;;;;;;;;;;;;;;;;;;;;;
2021/12/22 15:11:10;;;;;;;;;;;;;;;20.46;28.95;101977.11;97596;1409;74367;-82
2021/12/22 15:14:23;;;;;;;;;;;;;;;20.46;29.05;101978.90;97161;1415;75317;-82
2021/12/22 15:17:19;;;;;;;;;;;;;;;;;;;;;
2021/12/22 15:20:55;;;;;;;;;;;;;;;20.47;29.10;101985.12;96581;1419;61287;-82
2021/12/22 15:23:39;;;;;;;;;;;;;;;;;;;;;
2021/12/22 15:26:42;;;;;;;;;;;;;;;;;;;;;
2021/12/22 15:30:09;;;;;;;;;;;;;;;20.46;29.10;101985.34;96886;1418;61317;-82
2021/12/22 15:33:03;;;;;;;;;;;;;;;;;;;;;
2021/12/22 15:36:26;;;;;;;;;;;;;;;20.46;29.24;101991.05;97288;1407;74188;-83
2021/12/22 15:39:26;;;;;;;;;;;;;;;;;;;;;
2021/12/22 15:42:25;;;;;;;;;;;;;;;;;;;;;
2021/12/22 15:46:02;;;;;;;;;;;;;;;20.45;29.33;101993.05;98109;1399;61590;-83
2021/12/22 15:48:54;;;;;;;;;;;;;;;20.45;29.43;101997.87;98086;1404;73096;-83
2021/12/22 15:51:51;;;;;;;;;;;;;;;;;;;;;
2021/12/22 15:55:08;;;;;;;;;;;;;;;;;;;;;
2021/12/22 15:58:26;;;;;;;;;;;;;;;;;;;;;
2021/12/22 16:01:21;;;;;;;;;;;;;;;20.45;29.60;102002.88;98997;1386;73969;-82
2021/12/22 16:04:48;;;;;;;;;;;;;;;20.45;29.60;102002.89;98662;1397;73872;-83
2021/12/22 16:07:51;;;;;;;;;;;;;;;;;;;;;
2021/12/22 16:11:42;;;;;;;;;;;;;;;20.46;29.73;102002.16;98130;1404;62169;-83
2021/12/22 16:14:25;;;;;;;;;;;;;;;20.45;29.76;102007.55;98483;1394;72933;-82
2021/12/22 16:17:28;;;;;;;;;;;;;;;20.45;29.82;102008.97;98347;1402;74993;-82
2021/12/22 16:20:46;;;;;;;;;;;;;;;20.46;29.82;102012.54;98631;1396;61701;-82
2021/12/22 16:23:42;;;;;;;;;;;;;;;;;;;;;
2021/12/22 16:27:33;;;;;;;;;;;;;;;20.45;29.89;102014.88;98625;1398;74792;-82
2021/12/22 16:30:21;;;;;;;;;;;;;;;;;;;;;
2021/12/22 16:33:12;;;;;;;;;;;;;;;20.45;29.98;102014.16;98586;1393;61403;-83
2021/12/22 16:36:24;;;;;;;;;;;;;;;;;;;;;
2021/12/22 16:39:28;;;;;;;;;;;;;;;20.46;30.03;102024.16;98604;1398;73583;-82
2021/12/22 16:42:17;;;;;;;;;;;;;;;20.45;30.05;102026.48;98641;1398;75038;-82
2021/12/22 16:45:51;;;;;;;;;;;;;;;20.45;30.14;102029.91;98599;1394;61502;-82
2021/12/22 16:48:21;;;;;;;;;;;;;;;20.44;30.18;102030.80;98809;1393;61809;-82
2021/12/22 16:51:17;;;;;;;;;;;;;;;20.45;30.12;102033.11;98859;1393;73040;-82
2021/12/22 16:54:16;;;;;;;;;;;;;;;;;;;;;
2021/12/22 16:57:18;;;;;;;;;;;;;;;20.44;30.17;102022.24;98726;1397;61138;-83
2021/12/22 17:00:28;;;;;;;;;;;;;;;20.44;30.24;102027.77;98629;1395;61355;-82